sensor_id;sensor_type;location;lat;lon;timestamp;P1;durP1;ratioP1;P2;durP2;ratioP2
57800;SDS011;43627;42.728;23.256;2023-04-12T00:00:59;13.75;;;7.20;;
57800;SDS011;43627;42.728;23.256;2023-04-12T00:03:26;11.77;;;6.28;;
57800;SDS011;43627;42.728;23.256;2023-04-12T00:05:53;12.90;;;6.40;;
57800;SDS011;43627;42.728;23.256;2023-04-12T00:08:20;9.60;;;5.95;;
57800;SDS011;43627;42.728;23.256;2023-04-12T00:10:59;11.63;;;6.63;;
57800;SDS011;43627;42.728;23.256;2023-04-12T00:13:27;11.77;;;6.57;;
57800;SDS011;43627;42.728;23.256;2023-04-12T00:15:55;11.93;;;6.40;;
57800;SDS011;43627;42.728;23.256;2023-04-12T00:18:21;10.38;;;6.95;;
57800;SDS011;43627;42.728;23.256;2023-04-12T00:20:50;13.30;;;7.10;;
57800;SDS011;43627;42.728;23.256;2023-04-12T00:23:17;12.60;;;6.35;;
57800;SDS011;43627;42.728;23.256;2023-04-12T00:25:44;13.90;;;7.03;;
57800;SDS011;43627;42.728;23.256;2023-04-12T00:28:11;13.00;;;7.03;;
57800;SDS011;43627;42.728;23.256;2023-04-12T00:30:38;10.25;;;7.10;;
57800;SDS011;43627;42.728;23.256;2023-04-12T00:33:06;13.05;;;6.97;;
57800;SDS011;43627;42.728;23.256;2023-04-12T00:35:33;11.13;;;6.95;;
57800;SDS011;43627;42.728;23.256;2023-04-12T00:38:00;12.25;;;6.60;;
57800;SDS011;43627;42.728;23.256;2023-04-12T00:40:28;10.63;;;6.40;;
57800;SDS011;43627;42.728;23.256;2023-04-12T00:42:56;15.98;;;7.07;;
57800;SDS011;43627;42.728;23.256;2023-04-12T00:45:23;11.90;;;6.28;;
57800;SDS011;43627;42.728;23.256;2023-04-12T00:47:49;14.18;;;6.75;;
57800;SDS011;43627;42.728;23.256;2023-04-12T00:50:16;11.45;;;6.90;;
57800;SDS011;43627;42.728;23.256;2023-04-12T00:52:43;14.40;;;7.10;;
57800;SDS011;43627;42.728;23.256;2023-04-12T00:55:10;12.38;;;6.68;;
57800;SDS011;43627;42.728;23.256;2023-04-12T00:57:38;14.82;;;7.78;;
57800;SDS011;43627;42.728;23.256;2023-04-12T01:00:06;12.40;;;6.78;;
57800;SDS011;43627;42.728;23.256;2023-04-12T01:02:42;13.35;;;8.02;;
57800;SDS011;43627;42.728;23.256;2023-04-12T01:05:17;10.57;;;6.60;;
57800;SDS011;43627;42.728;23.256;2023-04-12T01:16:32;12.63;;;7.25;;
57800;SDS011;43627;42.728;23.256;2023-04-12T01:25:17;13.60;;;7.57;;
57800;SDS011;43627;42.728;23.256;2023-04-12T01:27:59;15.43;;;7.63;;
57800;SDS011;43627;42.728;23.256;2023-04-12T01:30:28;12.10;;;7.35;;
57800;SDS011;43627;42.728;23.256;2023-04-12T01:32:58;13.35;;;7.47;;
57800;SDS011;43627;42.728;23.256;2023-04-12T01:35:27;16.00;;;7.45;;
57800;SDS011;43627;42.728;23.256;2023-04-12T01:37:56;14.32;;;7.75;;
57800;SDS011;43627;42.728;23.256;2023-04-12T01:40:24;17.70;;;9.10;;
57800;SDS011;43627;42.728;23.256;2023-04-12T01:43:06;14.57;;;7.90;;
57800;SDS011;43627;42.728;23.256;2023-04-12T01:45:36;14.88;;;7.88;;
57800;SDS011;43627;42.728;23.256;2023-04-12T01:48:05;13.50;;;7.35;;
57800;SDS011;43627;42.728;23.256;2023-04-12T01:55:40;15.73;;;7.55;;
57800;SDS011;43627;42.728;23.256;2023-04-12T01:58:11;13.32;;;7.60;;
57800;SDS011;43627;42.728;23.256;2023-04-12T02:00:40;16.73;;;7.78;;
57800;SDS011;43627;42.728;23.256;2023-04-12T02:03:09;15.27;;;8.07;;
57800;SDS011;43627;42.728;23.256;2023-04-12T02:05:38;18.70;;;8.60;;
57800;SDS011;43627;42.728;23.256;2023-04-12T02:08:05;16.38;;;7.53;;
57800;SDS011;43627;42.728;23.256;2023-04-12T02:10:32;13.93;;;7.85;;
57800;SDS011;43627;42.728;23.256;2023-04-12T02:13:02;20.35;;;9.32;;
57800;SDS011;43627;42.728;23.256;2023-04-12T02:15:29;17.13;;;9.43;;
57800;SDS011;43627;42.728;23.256;2023-04-12T02:17:56;19.23;;;8.93;;
57800;SDS011;43627;42.728;23.256;2023-04-12T02:20:24;15.25;;;8.93;;
57800;SDS011;43627;42.728;23.256;2023-04-12T02:22:52;14.25;;;7.90;;
57800;SDS011;43627;42.728;23.256;2023-04-12T02:25:19;16.38;;;7.38;;
57800;SDS011;43627;42.728;23.256;2023-04-12T02:27:46;15.98;;;8.93;;
57800;SDS011;43627;42.728;23.256;2023-04-12T02:30:14;15.23;;;6.97;;
57800;SDS011;43627;42.728;23.256;2023-04-12T02:32:40;14.35;;;7.70;;
57800;SDS011;43627;42.728;23.256;2023-04-12T02:35:13;18.85;;;9.15;;
57800;SDS011;43627;42.728;23.256;2023-04-12T02:37:46;14.68;;;7.80;;
57800;SDS011;43627;42.728;23.256;2023-04-12T02:40:13;13.75;;;8.07;;
57800;SDS011;43627;42.728;23.256;2023-04-12T02:42:43;19.35;;;8.18;;
57800;SDS011;43627;42.728;23.256;2023-04-12T02:45:10;14.27;;;8.70;;
57800;SDS011;43627;42.728;23.256;2023-04-12T02:47:37;14.80;;;8.05;;
57800;SDS011;43627;42.728;23.256;2023-04-12T02:50:05;15.15;;;7.93;;
57800;SDS011;43627;42.728;23.256;2023-04-12T02:52:32;15.73;;;8.80;;
57800;SDS011;43627;42.728;23.256;2023-04-12T02:54:59;18.83;;;9.05;;
57800;SDS011;43627;42.728;23.256;2023-04-12T02:57:26;16.42;;;8.90;;
57800;SDS011;43627;42.728;23.256;2023-04-12T02:59:53;15.57;;;9.07;;
57800;SDS011;43627;42.728;23.256;2023-04-12T03:02:20;14.95;;;8.43;;
57800;SDS011;43627;42.728;23.256;2023-04-12T03:04:48;20.50;;;9.93;;
57800;SDS011;43627;42.728;23.256;2023-04-12T03:07:19;17.50;;;8.82;;
57800;SDS011;43627;42.728;23.256;2023-04-12T03:09:46;22.27;;;10.25;;
57800;SDS011;43627;42.728;23.256;2023-04-12T03:12:15;19.38;;;9.68;;
57800;SDS011;43627;42.728;23.256;2023-04-12T03:14:42;18.77;;;9.90;;
57800;SDS011;43627;42.728;23.256;2023-04-12T03:17:09;20.02;;;10.52;;
57800;SDS011;43627;42.728;23.256;2023-04-12T03:19:36;19.50;;;9.45;;
57800;SDS011;43627;42.728;23.256;2023-04-12T03:22:03;19.30;;;10.48;;
57800;SDS011;43627;42.728;23.256;2023-04-12T03:24:31;17.55;;;9.82;;
57800;SDS011;43627;42.728;23.256;2023-04-12T03:27:02;24.10;;;10.30;;
57800;SDS011;43627;42.728;23.256;2023-04-12T03:29:30;18.13;;;10.45;;
57800;SDS011;43627;42.728;23.256;2023-04-12T03:31:57;16.02;;;9.60;;
57800;SDS011;43627;42.728;23.256;2023-04-12T03:34:25;22.67;;;11.40;;
57800;SDS011;43627;42.728;23.256;2023-04-12T03:37:00;16.17;;;9.48;;
57800;SDS011;43627;42.728;23.256;2023-04-12T03:39:27;19.30;;;10.85;;
57800;SDS011;43627;42.728;23.256;2023-04-12T03:41:54;16.92;;;9.90;;
57800;SDS011;43627;42.728;23.256;2023-04-12T03:44:21;19.55;;;9.80;;
57800;SDS011;43627;42.728;23.256;2023-04-12T03:46:51;16.85;;;9.63;;
57800;SDS011;43627;42.728;23.256;2023-04-12T03:49:18;17.75;;;9.52;;
57800;SDS011;43627;42.728;23.256;2023-04-12T03:51:45;17.98;;;10.65;;
57800;SDS011;43627;42.728;23.256;2023-04-12T03:54:11;15.68;;;9.05;;
57800;SDS011;43627;42.728;23.256;2023-04-12T03:56:38;18.90;;;10.85;;
57800;SDS011;43627;42.728;23.256;2023-04-12T03:59:05;17.77;;;10.15;;
57800;SDS011;43627;42.728;23.256;2023-04-12T04:01:35;19.00;;;10.10;;
57800;SDS011;43627;42.728;23.256;2023-04-12T04:04:02;18.05;;;9.68;;
57800;SDS011;43627;42.728;23.256;2023-04-12T04:06:29;20.52;;;10.35;;
57800;SDS011;43627;42.728;23.256;2023-04-12T04:08:56;17.83;;;10.50;;
57800;SDS011;43627;42.728;23.256;2023-04-12T04:11:23;19.00;;;9.65;;
57800;SDS011;43627;42.728;23.256;2023-04-12T04:13:50;18.58;;;10.57;;
57800;SDS011;43627;42.728;23.256;2023-04-12T04:16:17;16.80;;;9.75;;
57800;SDS011;43627;42.728;23.256;2023-04-12T04:18:44;19.40;;;11.38;;
57800;SDS011;43627;42.728;23.256;2023-04-12T04:21:11;20.63;;;10.95;;
57800;SDS011;43627;42.728;23.256;2023-04-12T04:23:39;22.60;;;11.10;;
57800;SDS011;43627;42.728;23.256;2023-04-12T04:26:10;18.50;;;9.43;;
57800;SDS011;43627;42.728;23.256;2023-04-12T04:28:37;17.08;;;10.35;;
57800;SDS011;43627;42.728;23.256;2023-04-12T04:31:07;19.88;;;10.25;;
57800;SDS011;43627;42.728;23.256;2023-04-12T04:33:36;16.88;;;9.68;;
57800;SDS011;43627;42.728;23.256;2023-04-12T04:36:04;16.75;;;8.82;;
57800;SDS011;43627;42.728;23.256;2023-04-12T04:38:35;18.77;;;9.45;;
57800;SDS011;43627;42.728;23.256;2023-04-12T04:41:02;16.92;;;10.30;;
57800;SDS011;43627;42.728;23.256;2023-04-12T04:43:29;18.35;;;9.75;;
57800;SDS011;43627;42.728;23.256;2023-04-12T04:45:56;21.98;;;11.25;;
57800;SDS011;43627;42.728;23.256;2023-04-12T04:48:23;20.33;;;10.40;;
57800;SDS011;43627;42.728;23.256;2023-04-12T04:50:50;17.60;;;8.63;;
57800;SDS011;43627;42.728;23.256;2023-04-12T04:53:17;17.25;;;8.93;;
57800;SDS011;43627;42.728;23.256;2023-04-12T04:55:45;18.27;;;10.13;;
57800;SDS011;43627;42.728;23.256;2023-04-12T04:58:13;19.33;;;11.27;;
57800;SDS011;43627;42.728;23.256;2023-04-12T05:00:41;16.75;;;9.77;;
57800;SDS011;43627;42.728;23.256;2023-04-12T05:03:10;18.48;;;9.32;;
57800;SDS011;43627;42.728;23.256;2023-04-12T05:05:37;15.32;;;8.80;;
57800;SDS011;43627;42.728;23.256;2023-04-12T05:08:04;12.60;;;8.80;;
57800;SDS011;43627;42.728;23.256;2023-04-12T05:10:31;16.08;;;8.88;;
57800;SDS011;43627;42.728;23.256;2023-04-12T05:12:58;15.75;;;8.38;;
57800;SDS011;43627;42.728;23.256;2023-04-12T05:15:25;15.80;;;8.30;;
57800;SDS011;43627;42.728;23.256;2023-04-12T05:17:51;14.50;;;8.23;;
57800;SDS011;43627;42.728;23.256;2023-04-12T05:20:18;14.50;;;7.60;;
57800;SDS011;43627;42.728;23.256;2023-04-12T05:22:45;11.48;;;6.80;;
57800;SDS011;43627;42.728;23.256;2023-04-12T05:25:11;12.90;;;6.57;;
57800;SDS011;43627;42.728;23.256;2023-04-12T05:27:38;14.35;;;6.22;;
57800;SDS011;43627;42.728;23.256;2023-04-12T05:30:05;8.90;;;5.53;;
57800;SDS011;43627;42.728;23.256;2023-04-12T05:32:33;11.73;;;6.28;;
57800;SDS011;43627;42.728;23.256;2023-04-12T05:34:59;11.10;;;6.15;;
57800;SDS011;43627;42.728;23.256;2023-04-12T05:37:26;12.30;;;5.78;;
57800;SDS011;43627;42.728;23.256;2023-04-12T05:39:56;9.80;;;5.20;;
57800;SDS011;43627;42.728;23.256;2023-04-12T05:42:23;8.18;;;4.97;;
57800;SDS011;43627;42.728;23.256;2023-04-12T05:44:50;9.68;;;5.30;;
57800;SDS011;43627;42.728;23.256;2023-04-12T05:47:17;8.13;;;4.32;;
57800;SDS011;43627;42.728;23.256;2023-04-12T05:49:43;8.00;;;4.28;;
57800;SDS011;43627;42.728;23.256;2023-04-12T05:52:10;7.35;;;4.60;;
57800;SDS011;43627;42.728;23.256;2023-04-12T05:54:37;8.43;;;4.38;;
57800;SDS011;43627;42.728;23.256;2023-04-12T05:57:03;7.63;;;4.15;;
57800;SDS011;43627;42.728;23.256;2023-04-12T05:59:30;7.28;;;3.80;;
57800;SDS011;43627;42.728;23.256;2023-04-12T06:01:57;9.10;;;3.85;;
57800;SDS011;43627;42.728;23.256;2023-04-12T06:04:24;10.35;;;3.58;;
57800;SDS011;43627;42.728;23.256;2023-04-12T06:07:12;5.75;;;3.67;;
57800;SDS011;43627;42.728;23.256;2023-04-12T06:09:39;9.05;;;3.97;;
57800;SDS011;43627;42.728;23.256;2023-04-12T06:12:07;9.50;;;4.18;;
57800;SDS011;43627;42.728;23.256;2023-04-12T06:14:33;9.13;;;4.72;;
57800;SDS011;43627;42.728;23.256;2023-04-12T06:17:00;6.60;;;3.00;;
57800;SDS011;43627;42.728;23.256;2023-04-12T06:19:27;10.18;;;4.00;;
57800;SDS011;43627;42.728;23.256;2023-04-12T06:21:54;7.18;;;3.80;;
57800;SDS011;43627;42.728;23.256;2023-04-12T06:24:20;6.38;;;2.47;;
57800;SDS011;43627;42.728;23.256;2023-04-12T06:26:47;6.07;;;2.63;;
57800;SDS011;43627;42.728;23.256;2023-04-12T06:29:14;6.13;;;3.33;;
57800;SDS011;43627;42.728;23.256;2023-04-12T06:31:40;6.53;;;3.33;;
57800;SDS011;43627;42.728;23.256;2023-04-12T06:34:07;7.05;;;3.42;;
57800;SDS011;43627;42.728;23.256;2023-04-12T06:36:34;4.13;;;2.90;;
57800;SDS011;43627;42.728;23.256;2023-04-12T06:39:00;7.28;;;3.10;;
57800;SDS011;43627;42.728;23.256;2023-04-12T06:41:28;5.15;;;3.10;;
57800;SDS011;43627;42.728;23.256;2023-04-12T06:43:54;4.68;;;2.45;;
57800;SDS011;43627;42.728;23.256;2023-04-12T06:46:25;4.13;;;2.30;;
57800;SDS011;43627;42.728;23.256;2023-04-12T06:48:52;3.78;;;2.17;;
57800;SDS011;43627;42.728;23.256;2023-04-12T06:51:19;5.35;;;2.35;;
57800;SDS011;43627;42.728;23.256;2023-04-12T06:53:46;3.20;;;1.70;;
57800;SDS011;43627;42.728;23.256;2023-04-12T06:56:13;3.10;;;1.90;;
57800;SDS011;43627;42.728;23.256;2023-04-12T06:58:43;4.50;;;2.72;;
57800;SDS011;43627;42.728;23.256;2023-04-12T07:01:10;3.08;;;1.92;;
57800;SDS011;43627;42.728;23.256;2023-04-12T07:03:36;3.65;;;1.95;;
57800;SDS011;43627;42.728;23.256;2023-04-12T07:06:04;3.45;;;2.25;;
57800;SDS011;43627;42.728;23.256;2023-04-12T07:08:49;4.88;;;2.40;;
57800;SDS011;43627;42.728;23.256;2023-04-12T07:11:16;3.10;;;1.98;;
57800;SDS011;43627;42.728;23.256;2023-04-12T07:13:47;3.88;;;1.98;;
57800;SDS011;43627;42.728;23.256;2023-04-12T07:16:14;2.03;;;1.65;;
57800;SDS011;43627;42.728;23.256;2023-04-12T07:18:41;2.30;;;1.75;;
57800;SDS011;43627;42.728;23.256;2023-04-12T07:21:08;3.67;;;2.60;;
57800;SDS011;43627;42.728;23.256;2023-04-12T07:23:34;4.75;;;2.60;;
57800;SDS011;43627;42.728;23.256;2023-04-12T07:26:01;2.85;;;2.13;;
57800;SDS011;43627;42.728;23.256;2023-04-12T07:28:28;3.75;;;2.50;;
57800;SDS011;43627;42.728;23.256;2023-04-12T07:30:54;2.40;;;1.73;;
57800;SDS011;43627;42.728;23.256;2023-04-12T07:33:21;5.40;;;1.80;;
57800;SDS011;43627;42.728;23.256;2023-04-12T07:35:48;6.15;;;2.13;;
57800;SDS011;43627;42.728;23.256;2023-04-12T07:38:15;2.40;;;1.92;;
57800;SDS011;43627;42.728;23.256;2023-04-12T07:40:42;1.83;;;1.52;;
57800;SDS011;43627;42.728;23.256;2023-04-12T07:43:09;2.53;;;1.85;;
57800;SDS011;43627;42.728;23.256;2023-04-12T07:45:35;2.45;;;1.55;;
57800;SDS011;43627;42.728;23.256;2023-04-12T07:48:03;3.35;;;1.52;;
57800;SDS011;43627;42.728;23.256;2023-04-12T07:50:31;2.65;;;1.30;;
57800;SDS011;43627;42.728;23.256;2023-04-12T07:53:10;4.25;;;1.50;;
57800;SDS011;43627;42.728;23.256;2023-04-12T07:55:46;4.05;;;1.58;;
57800;SDS011;43627;42.728;23.256;2023-04-12T07:58:13;1.90;;;1.58;;
57800;SDS011;43627;42.728;23.256;2023-04-12T08:00:41;1.50;;;1.10;;
57800;SDS011;43627;42.728;23.256;2023-04-12T08:03:10;1.15;;;0.88;;
57800;SDS011;43627;42.728;23.256;2023-04-12T08:05:38;1.70;;;1.10;;
57800;SDS011;43627;42.728;23.256;2023-04-12T08:08:05;2.17;;;1.23;;
57800;SDS011;43627;42.728;23.256;2023-04-12T08:10:33;1.40;;;1.00;;
57800;SDS011;43627;42.728;23.256;2023-04-12T08:13:00;1.38;;;1.13;;
57800;SDS011;43627;42.728;23.256;2023-04-12T08:15:27;2.28;;;1.27;;
57800;SDS011;43627;42.728;23.256;2023-04-12T08:17:53;4.15;;;1.15;;
57800;SDS011;43627;42.728;23.256;2023-04-12T08:20:20;1.58;;;0.73;;
57800;SDS011;43627;42.728;23.256;2023-04-12T08:22:47;0.70;;;0.70;;
57800;SDS011;43627;42.728;23.256;2023-04-12T08:25:14;2.83;;;0.93;;
57800;SDS011;43627;42.728;23.256;2023-04-12T08:27:41;2.78;;;1.20;;
57800;SDS011;43627;42.728;23.256;2023-04-12T08:30:09;1.25;;;0.80;;
57800;SDS011;43627;42.728;23.256;2023-04-12T08:32:37;2.03;;;0.65;;
57800;SDS011;43627;42.728;23.256;2023-04-12T08:35:04;0.47;;;0.43;;
57800;SDS011;43627;42.728;23.256;2023-04-12T08:37:32;1.08;;;0.98;;
57800;SDS011;43627;42.728;23.256;2023-04-12T08:40:01;2.20;;;1.00;;
57800;SDS011;43627;42.728;23.256;2023-04-12T08:42:30;1.05;;;0.70;;
57800;SDS011;43627;42.728;23.256;2023-04-12T08:45:03;3.13;;;0.85;;
57800;SDS011;43627;42.728;23.256;2023-04-12T08:47:32;1.55;;;1.00;;
57800;SDS011;43627;42.728;23.256;2023-04-12T08:50:02;3.20;;;0.90;;
57800;SDS011;43627;42.728;23.256;2023-04-12T08:52:33;1.45;;;0.95;;
57800;SDS011;43627;42.728;23.256;2023-04-12T08:55:02;2.92;;;1.20;;
57800;SDS011;43627;42.728;23.256;2023-04-12T08:57:29;2.17;;;1.48;;
57800;SDS011;43627;42.728;23.256;2023-04-12T09:00:01;1.58;;;1.00;;
57800;SDS011;43627;42.728;23.256;2023-04-12T09:02:30;1.02;;;0.80;;
57800;SDS011;43627;42.728;23.256;2023-04-12T09:04:57;0.93;;;0.70;;
57800;SDS011;43627;42.728;23.256;2023-04-12T09:07:24;2.55;;;0.77;;
57800;SDS011;43627;42.728;23.256;2023-04-12T09:09:56;7.00;;;1.38;;
57800;SDS011;43627;42.728;23.256;2023-04-12T09:12:24;2.40;;;1.48;;
57800;SDS011;43627;42.728;23.256;2023-04-12T09:17:39;1.67;;;0.63;;
57800;SDS011;43627;42.728;23.256;2023-04-12T09:22:37;0.65;;;0.60;;
57800;SDS011;43627;42.728;23.256;2023-04-12T09:25:09;1.35;;;0.45;;
57800;SDS011;43627;42.728;23.256;2023-04-12T09:27:46;1.65;;;0.65;;
57800;SDS011;43627;42.728;23.256;2023-04-12T09:30:17;1.25;;;0.60;;
57800;SDS011;43627;42.728;23.256;2023-04-12T09:32:45;2.75;;;0.40;;
57800;SDS011;43627;42.728;23.256;2023-04-12T09:35:16;5.30;;;0.70;;
57800;SDS011;43627;42.728;23.256;2023-04-12T09:37:43;1.45;;;0.60;;
57800;SDS011;43627;42.728;23.256;2023-04-12T09:40:10;1.13;;;0.38;;
57800;SDS011;43627;42.728;23.256;2023-04-12T09:42:50;1.00;;;0.68;;
57800;SDS011;43627;42.728;23.256;2023-04-12T09:45:22;0.75;;;0.60;;
57800;SDS011;43627;42.728;23.256;2023-04-12T09:47:51;1.63;;;0.68;;
57800;SDS011;43627;42.728;23.256;2023-04-12T09:50:20;0.70;;;0.50;;
57800;SDS011;43627;42.728;23.256;2023-04-12T09:52:52;0.73;;;0.57;;
57800;SDS011;43627;42.728;23.256;2023-04-12T09:55:20;0.90;;;0.68;;
57800;SDS011;43627;42.728;23.256;2023-04-12T09:57:49;1.50;;;0.50;;
57800;SDS011;43627;42.728;23.256;2023-04-12T10:00:17;7.50;;;3.88;;
57800;SDS011;43627;42.728;23.256;2023-04-12T10:02:51;8.70;;;4.78;;
57800;SDS011;43627;42.728;23.256;2023-04-12T10:05:20;1.65;;;0.65;;
57800;SDS011;43627;42.728;23.256;2023-04-12T10:07:50;0.30;;;0.17;;
57800;SDS011;43627;42.728;23.256;2023-04-12T10:10:18;0.68;;;0.35;;
57800;SDS011;43627;42.728;23.256;2023-04-12T10:12:46;1.67;;;0.40;;
57800;SDS011;43627;42.728;23.256;2023-04-12T10:15:14;2.85;;;0.50;;
57800;SDS011;43627;42.728;23.256;2023-04-12T10:17:50;0.75;;;0.70;;
57800;SDS011;43627;42.728;23.256;2023-04-12T10:20:20;1.70;;;0.47;;
57800;SDS011;43627;42.728;23.256;2023-04-12T10:25:19;1.10;;;0.63;;
57800;SDS011;43627;42.728;23.256;2023-04-12T10:27:47;1.10;;;0.57;;
57800;SDS011;43627;42.728;23.256;2023-04-12T10:33:11;1.00;;;0.40;;
57800;SDS011;43627;42.728;23.256;2023-04-12T10:35:52;1.38;;;0.68;;
57800;SDS011;43627;42.728;23.256;2023-04-12T10:38:23;2.20;;;0.35;;
57800;SDS011;43627;42.728;23.256;2023-04-12T10:43:50;0.65;;;0.45;;
57800;SDS011;43627;42.728;23.256;2023-04-12T10:49:06;5.03;;;0.80;;
57800;SDS011;43627;42.728;23.256;2023-04-12T10:51:35;0.70;;;0.52;;
57800;SDS011;43627;42.728;23.256;2023-04-12T10:56:38;1.08;;;0.55;;
57800;SDS011;43627;42.728;23.256;2023-04-12T10:59:13;0.38;;;0.20;;
57800;SDS011;43627;42.728;23.256;2023-04-12T11:02:06;0.93;;;0.52;;
57800;SDS011;43627;42.728;23.256;2023-04-12T11:04:35;0.90;;;0.40;;
57800;SDS011;43627;42.728;23.256;2023-04-12T11:19:37;0.82;;;0.40;;
57800;SDS011;43627;42.728;23.256;2023-04-12T11:22:06;1.85;;;0.65;;
57800;SDS011;43627;42.728;23.256;2023-04-12T11:24:38;5.93;;;0.47;;
57800;SDS011;43627;42.728;23.256;2023-04-12T11:27:25;1.23;;;0.32;;
57800;SDS011;43627;42.728;23.256;2023-04-12T11:29:54;0.28;;;0.20;;
57800;SDS011;43627;42.728;23.256;2023-04-12T11:32:22;4.03;;;0.45;;
57800;SDS011;43627;42.728;23.256;2023-04-12T11:34:52;0.50;;;0.45;;
57800;SDS011;43627;42.728;23.256;2023-04-12T11:37:20;1.33;;;1.13;;
57800;SDS011;43627;42.728;23.256;2023-04-12T11:39:52;1.33;;;0.50;;
57800;SDS011;43627;42.728;23.256;2023-04-12T11:42:24;5.57;;;0.80;;
57800;SDS011;43627;42.728;23.256;2023-04-12T11:44:52;2.78;;;0.60;;
57800;SDS011;43627;42.728;23.256;2023-04-12T11:47:28;1.20;;;0.63;;
57800;SDS011;43627;42.728;23.256;2023-04-12T11:49:56;1.45;;;0.80;;
57800;SDS011;43627;42.728;23.256;2023-04-12T11:52:28;0.82;;;0.40;;
57800;SDS011;43627;42.728;23.256;2023-04-12T11:54:57;1.13;;;0.40;;
57800;SDS011;43627;42.728;23.256;2023-04-12T11:57:26;0.63;;;0.28;;
57800;SDS011;43627;42.728;23.256;2023-04-12T11:59:55;1.40;;;0.40;;
57800;SDS011;43627;42.728;23.256;2023-04-12T12:02:23;0.75;;;0.57;;
57800;SDS011;43627;42.728;23.256;2023-04-12T12:04:57;1.45;;;0.45;;
57800;SDS011;43627;42.728;23.256;2023-04-12T12:07:24;0.50;;;0.30;;
57800;SDS011;43627;42.728;23.256;2023-04-12T12:09:51;5.10;;;0.50;;
57800;SDS011;43627;42.728;23.256;2023-04-12T12:12:19;0.55;;;0.45;;
57800;SDS011;43627;42.728;23.256;2023-04-12T12:14:49;0.50;;;0.25;;
57800;SDS011;43627;42.728;23.256;2023-04-12T12:17:16;0.20;;;0.20;;
57800;SDS011;43627;42.728;23.256;2023-04-12T12:19:43;1.10;;;0.55;;
57800;SDS011;43627;42.728;23.256;2023-04-12T12:22:17;0.30;;;0.30;;
57800;SDS011;43627;42.728;23.256;2023-04-12T12:24:58;1.23;;;0.45;;
57800;SDS011;43627;42.728;23.256;2023-04-12T12:27:38;3.05;;;1.00;;
57800;SDS011;43627;42.728;23.256;2023-04-12T12:30:08;1.13;;;0.43;;
57800;SDS011;43627;42.728;23.256;2023-04-12T12:32:37;0.60;;;0.50;;
57800;SDS011;43627;42.728;23.256;2023-04-12T12:35:09;1.52;;;0.43;;
57800;SDS011;43627;42.728;23.256;2023-04-12T12:37:37;1.17;;;0.40;;
57800;SDS011;43627;42.728;23.256;2023-04-12T12:40:27;0.70;;;0.40;;
57800;SDS011;43627;42.728;23.256;2023-04-12T12:42:57;0.80;;;0.30;;
57800;SDS011;43627;42.728;23.256;2023-04-12T12:45:26;1.48;;;0.50;;
57800;SDS011;43627;42.728;23.256;2023-04-12T12:47:56;0.70;;;0.40;;
57800;SDS011;43627;42.728;23.256;2023-04-12T12:50:31;1.13;;;0.45;;
57800;SDS011;43627;42.728;23.256;2023-04-12T12:52:59;1.98;;;0.80;;
57800;SDS011;43627;42.728;23.256;2023-04-12T12:55:28;1.42;;;0.38;;
57800;SDS011;43627;42.728;23.256;2023-04-12T12:57:56;4.32;;;0.80;;
57800;SDS011;43627;42.728;23.256;2023-04-12T13:00:27;0.45;;;0.45;;
57800;SDS011;43627;42.728;23.256;2023-04-12T13:02:54;3.50;;;0.73;;
57800;SDS011;43627;42.728;23.256;2023-04-12T13:05:22;1.08;;;0.70;;
57800;SDS011;43627;42.728;23.256;2023-04-12T13:07:48;0.85;;;0.45;;
57800;SDS011;43627;42.728;23.256;2023-04-12T13:10:15;0.60;;;0.30;;
57800;SDS011;43627;42.728;23.256;2023-04-12T13:12:42;0.57;;;0.32;;
57800;SDS011;43627;42.728;23.256;2023-04-12T13:15:09;1.80;;;0.50;;
57800;SDS011;43627;42.728;23.256;2023-04-12T13:17:50;2.45;;;1.08;;
57800;SDS011;43627;42.728;23.256;2023-04-12T13:20:17;1.45;;;0.52;;
57800;SDS011;43627;42.728;23.256;2023-04-12T13:22:43;4.15;;;0.55;;
57800;SDS011;43627;42.728;23.256;2023-04-12T13:25:10;1.48;;;0.52;;
57800;SDS011;43627;42.728;23.256;2023-04-12T13:27:37;7.18;;;0.40;;
57800;SDS011;43627;42.728;23.256;2023-04-12T13:30:04;0.70;;;0.30;;
57800;SDS011;43627;42.728;23.256;2023-04-12T13:32:32;0.50;;;0.30;;
57800;SDS011;43627;42.728;23.256;2023-04-12T13:34:59;0.38;;;0.35;;
57800;SDS011;43627;42.728;23.256;2023-04-12T13:37:25;3.13;;;0.65;;
57800;SDS011;43627;42.728;23.256;2023-04-12T13:39:52;1.33;;;0.55;;
57800;SDS011;43627;42.728;23.256;2023-04-12T13:42:19;1.05;;;0.55;;
57800;SDS011;43627;42.728;23.256;2023-04-12T13:44:47;0.85;;;0.50;;
57800;SDS011;43627;42.728;23.256;2023-04-12T13:47:14;1.48;;;0.50;;
57800;SDS011;43627;42.728;23.256;2023-04-12T13:49:43;0.95;;;0.25;;
57800;SDS011;43627;42.728;23.256;2023-04-12T13:52:10;0.88;;;0.73;;
57800;SDS011;43627;42.728;23.256;2023-04-12T13:54:36;0.73;;;0.52;;
57800;SDS011;43627;42.728;23.256;2023-04-12T13:57:03;2.95;;;0.63;;
57800;SDS011;43627;42.728;23.256;2023-04-12T13:59:31;1.58;;;0.47;;
57800;SDS011;43627;42.728;23.256;2023-04-12T14:01:58;2.20;;;0.40;;
57800;SDS011;43627;42.728;23.256;2023-04-12T14:04:26;0.63;;;0.40;;
57800;SDS011;43627;42.728;23.256;2023-04-12T14:06:53;3.40;;;0.85;;
57800;SDS011;43627;42.728;23.256;2023-04-12T14:09:27;4.15;;;1.83;;
57800;SDS011;43627;42.728;23.256;2023-04-12T14:11:56;0.93;;;0.43;;
57800;SDS011;43627;42.728;23.256;2023-04-12T14:14:24;1.63;;;0.80;;
57800;SDS011;43627;42.728;23.256;2023-04-12T14:16:53;0.75;;;0.40;;
57800;SDS011;43627;42.728;23.256;2023-04-12T14:19:23;0.45;;;0.30;;
57800;SDS011;43627;42.728;23.256;2023-04-12T14:21:50;1.63;;;0.35;;
57800;SDS011;43627;42.728;23.256;2023-04-12T14:24:17;0.63;;;0.38;;
57800;SDS011;43627;42.728;23.256;2023-04-12T14:26:44;0.70;;;0.52;;
57800;SDS011;43627;42.728;23.256;2023-04-12T14:29:12;1.67;;;0.75;;
57800;SDS011;43627;42.728;23.256;2023-04-12T14:31:38;1.27;;;0.85;;
57800;SDS011;43627;42.728;23.256;2023-04-12T14:34:05;0.30;;;0.30;;
57800;SDS011;43627;42.728;23.256;2023-04-12T14:36:36;3.38;;;0.30;;
57800;SDS011;43627;42.728;23.256;2023-04-12T14:39:03;1.08;;;0.40;;
57800;SDS011;43627;42.728;23.256;2023-04-12T14:41:33;1.48;;;0.40;;
57800;SDS011;43627;42.728;23.256;2023-04-12T14:44:00;1.20;;;0.38;;
57800;SDS011;43627;42.728;23.256;2023-04-12T14:46:27;0.98;;;0.40;;
57800;SDS011;43627;42.728;23.256;2023-04-12T14:48:56;0.80;;;0.50;;
57800;SDS011;43627;42.728;23.256;2023-04-12T14:51:25;0.55;;;0.30;;
57800;SDS011;43627;42.728;23.256;2023-04-12T14:53:52;0.82;;;0.60;;
57800;SDS011;43627;42.728;23.256;2023-04-12T14:56:20;1.13;;;0.40;;
57800;SDS011;43627;42.728;23.256;2023-04-12T14:58:53;0.70;;;0.40;;
57800;SDS011;43627;42.728;23.256;2023-04-12T15:01:21;1.08;;;0.70;;
57800;SDS011;43627;42.728;23.256;2023-04-12T15:03:49;0.47;;;0.47;;
57800;SDS011;43627;42.728;23.256;2023-04-12T15:06:18;0.98;;;0.30;;
57800;SDS011;43627;42.728;23.256;2023-04-12T15:08:46;1.63;;;0.38;;
57800;SDS011;43627;42.728;23.256;2023-04-12T15:11:15;1.08;;;0.30;;
57800;SDS011;43627;42.728;23.256;2023-04-12T15:13:44;0.60;;;0.30;;
57800;SDS011;43627;42.728;23.256;2023-04-12T15:16:11;1.63;;;0.55;;
57800;SDS011;43627;42.728;23.256;2023-04-12T15:18:38;2.70;;;0.82;;
57800;SDS011;43627;42.728;23.256;2023-04-12T15:21:07;0.60;;;0.30;;
57800;SDS011;43627;42.728;23.256;2023-04-12T15:23:35;1.85;;;0.40;;
57800;SDS011;43627;42.728;23.256;2023-04-12T15:26:03;0.63;;;0.30;;
57800;SDS011;43627;42.728;23.256;2023-04-12T15:28:32;1.50;;;0.47;;